createdAt,value
2022-08-28T00:00:51.600Z,36.30
2022-08-28T00:03:18.748Z,38.72
2022-08-28T00:05:46.717Z,41.20
2022-08-28T00:08:16.964Z,45.67
2022-08-28T00:10:47.068Z,43.42
2022-08-28T00:13:18.918Z,45.20
2022-08-28T00:15:49.348Z,42.58
2022-08-28T00:18:17.891Z,52.70
2022-08-28T00:20:46.622Z,44.50
2022-08-28T00:23:14.019Z,53.15
2022-08-28T00:25:41.274Z,56.03
2022-08-28T00:28:10.792Z,61.15
2022-08-28T00:30:53.790Z,55.28
2022-08-28T00:33:33.473Z,51.53
2022-08-28T00:36:02.414Z,50.28
2022-08-28T00:38:29.999Z,55.42
2022-08-28T00:41:04.031Z,69.00
2022-08-28T00:43:40.133Z,58.28
2022-08-28T00:46:11.656Z,61.97
2022-08-28T00:48:40.440Z,57.65
2022-08-28T00:51:26.864Z,59.00
2022-08-28T00:53:58.944Z,68.63
2022-08-28T00:56:29.119Z,61.30
2022-08-28T00:59:02.019Z,60.90
2022-08-28T01:01:30.217Z,52.78
2022-08-28T01:03:58.022Z,62.70
2022-08-28T01:06:25.234Z,57.53
2022-08-28T01:08:53.900Z,59.67
2022-08-28T01:11:21.384Z,58.10
2022-08-28T01:13:49.953Z,61.03
2022-08-28T01:16:19.530Z,53.72
2022-08-28T01:18:48.314Z,54.45
2022-08-28T01:21:39.619Z,60.38
2022-08-28T01:24:14.383Z,48.13
2022-08-28T01:26:42.630Z,51.13
2022-08-28T01:29:11.567Z,51.67
2022-08-28T01:31:41.631Z,56.13
2022-08-28T01:34:12.609Z,56.80
2022-08-28T01:36:40.373Z,57.28
2022-08-28T01:39:18.789Z,61.60
2022-08-28T01:41:48.480Z,61.03
2022-08-28T01:44:17.985Z,62.97
2022-08-28T01:46:46.654Z,64.85
2022-08-28T01:49:15.838Z,73.30
2022-08-28T01:51:43.110Z,75.10
2022-08-28T01:54:11.865Z,85.28
2022-08-28T01:56:41.923Z,74.43
2022-08-28T01:59:10.552Z,90.13
2022-08-28T02:01:38.218Z,88.28
2022-08-28T02:04:06.356Z,73.63
2022-08-28T02:06:34.097Z,79.07
2022-08-28T02:09:04.051Z,78.97
2022-08-28T02:11:32.831Z,85.65
2022-08-28T02:14:01.248Z,83.00
2022-08-28T02:16:28.854Z,84.10
2022-08-28T02:18:56.740Z,89.45
2022-08-28T02:21:25.398Z,83.10
2022-08-28T02:23:53.111Z,81.78
2022-08-28T02:26:21.132Z,92.03
2022-08-28T02:28:48.764Z,89.10
2022-08-28T02:31:16.139Z,91.10
2022-08-28T02:33:44.984Z,102.53
2022-08-28T02:36:14.188Z,92.90
2022-08-28T02:38:45.050Z,86.07
2022-08-28T02:41:12.704Z,90.95
2022-08-28T02:43:40.602Z,99.28
2022-08-28T02:51:07.822Z,97.65
2022-08-28T02:53:36.429Z,93.90
2022-08-28T02:56:05.091Z,105.70
2022-08-28T02:58:35.695Z,102.32
2022-08-28T03:01:15.669Z,97.55
2022-08-28T03:03:43.035Z,103.45
2022-08-28T03:06:12.553Z,97.75
2022-08-28T03:08:41.672Z,93.85
2022-08-28T03:11:09.590Z,97.20
2022-08-28T03:16:05.053Z,105.35
2022-08-28T03:18:33.266Z,86.50
2022-08-28T03:21:00.570Z,88.60
2022-08-28T03:23:28.023Z,84.55
2022-08-28T03:26:13.105Z,82.40
2022-08-28T03:28:48.049Z,88.63
2022-08-28T03:31:19.767Z,75.90
2022-08-28T03:33:48.669Z,62.47
2022-08-28T03:36:21.398Z,60.13
2022-08-28T03:38:50.205Z,59.30
2022-08-28T03:41:21.549Z,50.00
2022-08-28T03:43:49.433Z,64.20
2022-08-28T03:48:45.706Z,53.90
2022-08-28T03:53:58.211Z,54.47
2022-08-28T03:56:27.206Z,56.58
2022-08-28T03:58:57.490Z,44.22
2022-08-28T04:01:25.725Z,53.17
2022-08-28T04:03:53.039Z,58.25
2022-08-28T04:06:20.223Z,50.45
2022-08-28T04:08:48.424Z,50.78
2022-08-28T04:11:15.605Z,64.55
2022-08-28T04:13:42.824Z,64.05
2022-08-28T04:16:21.344Z,63.10
2022-08-28T04:18:49.649Z,68.82
2022-08-28T04:21:21.113Z,60.75
2022-08-28T04:23:48.435Z,62.88
2022-08-28T04:26:18.746Z,59.65
2022-08-28T04:28:46.771Z,64.65
2022-08-28T04:31:15.010Z,68.57
2022-08-28T04:33:42.590Z,63.33
2022-08-28T04:36:13.145Z,58.55
2022-08-28T04:38:44.031Z,58.38
2022-08-28T04:41:14.067Z,60.80
2022-08-28T04:43:42.082Z,68.97
2022-08-28T04:46:12.687Z,59.67
2022-08-28T04:48:41.458Z,57.97
2022-08-28T04:51:12.358Z,57.67
2022-08-28T04:53:39.730Z,56.25
2022-08-28T04:56:10.044Z,50.00
2022-08-28T04:58:39.131Z,49.28
2022-08-28T05:01:12.839Z,42.03
2022-08-28T05:03:40.259Z,41.05
2022-08-28T05:06:08.611Z,46.97
2022-08-28T05:08:35.975Z,34.97
2022-08-28T05:11:32.672Z,50.92
2022-08-28T05:14:02.016Z,32.90
2022-08-28T05:16:29.187Z,33.05
2022-08-28T05:19:00.500Z,30.63
2022-08-28T05:21:28.266Z,33.70
2022-08-28T05:23:57.882Z,34.00
2022-08-28T05:26:26.881Z,39.38
2022-08-28T05:28:55.337Z,35.35
2022-08-28T05:31:23.947Z,30.85
2022-08-28T05:33:53.255Z,40.05
2022-08-28T05:36:23.196Z,33.13
2022-08-28T05:38:56.743Z,29.52
2022-08-28T05:41:30.179Z,26.65
2022-08-28T05:44:02.714Z,28.27
2022-08-28T05:46:29.997Z,27.88
2022-08-28T05:49:00.775Z,29.38
2022-08-28T05:51:28.829Z,32.15
2022-08-28T05:56:30.098Z,39.03
2022-08-28T05:59:25.066Z,39.10
2022-08-28T06:02:00.879Z,31.00
2022-08-28T06:04:40.507Z,32.60
2022-08-28T06:07:44.007Z,35.72
2022-08-28T06:10:11.826Z,28.00
2022-08-28T06:12:38.991Z,24.65
2022-08-28T06:15:08.629Z,23.63
2022-08-28T06:17:40.645Z,24.05
2022-08-28T06:20:09.128Z,33.80
2022-08-28T06:22:36.328Z,21.42
2022-08-28T06:25:07.422Z,25.15
2022-08-28T06:27:39.246Z,24.35
2022-08-28T06:30:07.122Z,17.45
2022-08-28T06:32:37.026Z,22.45
2022-08-28T06:35:05.022Z,30.75
2022-08-28T06:40:02.256Z,25.02
2022-08-28T06:42:33.939Z,22.27
2022-08-28T06:45:01.568Z,19.05
2022-08-28T06:47:28.811Z,32.97
2022-08-28T06:51:04.132Z,33.72
2022-08-28T06:53:34.036Z,26.58
2022-08-28T06:56:09.910Z,18.75
2022-08-28T06:58:42.538Z,23.15
2022-08-28T07:01:24.185Z,19.35
2022-08-28T07:03:54.980Z,31.80
2022-08-28T07:06:24.003Z,20.77
2022-08-28T07:08:51.951Z,19.95
2022-08-28T07:13:55.543Z,24.65
2022-08-28T07:16:26.863Z,18.75
2022-08-28T07:18:54.449Z,18.88
2022-08-28T07:21:22.743Z,20.25
2022-08-28T07:23:50.414Z,24.42
2022-08-28T07:26:23.350Z,20.23
2022-08-28T07:28:51.953Z,23.83
2022-08-28T07:31:23.049Z,21.77
2022-08-28T07:33:54.261Z,17.40
2022-08-28T07:36:29.921Z,19.38
2022-08-28T07:39:00.298Z,21.60
2022-08-28T07:41:37.906Z,20.98
2022-08-28T07:44:26.524Z,17.00
2022-08-28T07:47:00.227Z,17.40
2022-08-28T07:49:28.379Z,20.20
2022-08-28T07:51:55.670Z,27.48
2022-08-28T07:54:23.693Z,23.52
2022-08-28T07:56:52.804Z,20.50
2022-08-28T07:59:20.324Z,15.18
2022-08-28T08:01:51.861Z,17.13
2022-08-28T08:04:20.833Z,20.35
2022-08-28T08:06:49.103Z,25.60
2022-08-28T08:09:21.252Z,17.25
2022-08-28T08:11:50.196Z,17.27
2022-08-28T08:14:21.085Z,23.80
2022-08-28T08:16:56.366Z,25.23
2022-08-28T08:19:26.000Z,24.48
2022-08-28T08:21:55.137Z,19.95
2022-08-28T08:24:28.813Z,23.48
2022-08-28T08:27:00.757Z,13.88
2022-08-28T08:29:31.612Z,18.38
2022-08-28T08:32:06.237Z,18.85
2022-08-28T08:34:38.728Z,14.88
2022-08-28T08:37:06.362Z,17.95
2022-08-28T08:51:35.366Z,19.60
2022-08-28T08:54:15.391Z,17.98
2022-08-28T08:56:44.967Z,16.05
2022-08-28T08:59:25.841Z,16.80
2022-08-28T09:02:22.506Z,20.58
2022-08-28T09:05:06.686Z,17.50
2022-08-28T09:07:34.834Z,19.67
2022-08-28T09:13:41.218Z,18.45
2022-08-28T09:16:55.718Z,16.90
2022-08-28T09:19:25.280Z,18.85
2022-08-28T09:21:53.246Z,18.23
2022-08-28T09:27:08.939Z,18.85
2022-08-28T09:31:19.552Z,20.33
2022-08-28T09:34:07.298Z,18.52
2022-08-28T09:37:25.144Z,22.88
2022-08-28T09:40:24.772Z,14.32
2022-08-28T09:43:27.096Z,23.98
2022-08-28T09:46:56.412Z,16.00
2022-08-28T09:49:45.629Z,17.73
2022-08-28T09:52:33.760Z,19.88
2022-08-28T09:55:03.227Z,19.48
2022-08-28T09:57:32.784Z,26.38
2022-08-28T10:00:06.663Z,20.77
2022-08-28T10:03:09.746Z,17.13
2022-08-28T10:05:51.941Z,23.23
2022-08-28T10:08:48.416Z,15.23
2022-08-28T10:11:34.754Z,22.53
2022-08-28T10:14:28.653Z,21.65
2022-08-28T10:17:14.172Z,16.25
2022-08-28T10:19:49.949Z,18.35
2022-08-28T10:22:59.455Z,12.88
2022-08-28T10:25:58.132Z,18.75
2022-08-28T10:28:39.974Z,17.20
2022-08-28T10:31:26.804Z,25.83
2022-08-28T10:34:14.777Z,17.92
2022-08-28T10:36:50.934Z,15.00
2022-08-28T10:39:47.890Z,18.35
2022-08-28T10:42:27.859Z,14.68
2022-08-28T10:45:15.035Z,18.38
2022-08-28T10:47:51.502Z,12.93
2022-08-28T10:50:24.086Z,20.50
2022-08-28T10:53:00.343Z,16.08
2022-08-28T10:55:36.592Z,25.65
2022-08-28T10:58:23.831Z,14.18
2022-08-28T11:01:01.669Z,16.00
2022-08-28T11:03:34.839Z,19.15
2022-08-28T11:06:11.603Z,17.35
2022-08-28T11:08:39.884Z,13.57
2022-08-28T11:11:14.065Z,19.52
2022-08-28T11:13:58.403Z,13.10
2022-08-28T11:16:42.196Z,17.30
2022-08-28T11:19:22.813Z,15.23
2022-08-28T11:22:04.760Z,12.52
2022-08-28T11:24:50.640Z,14.63
2022-08-28T11:27:35.618Z,16.58
2022-08-28T11:30:10.837Z,16.35
2022-08-28T11:32:49.707Z,12.68
2022-08-28T11:35:53.373Z,15.95
2022-08-28T11:38:43.467Z,13.57
2022-08-28T11:41:23.114Z,17.40
2022-08-28T11:44:04.487Z,15.52
2022-08-28T11:46:33.872Z,15.63
2022-08-28T11:49:05.318Z,16.35
2022-08-28T11:51:57.616Z,13.93
2022-08-28T11:54:37.763Z,15.65
2022-08-28T11:57:13.641Z,10.38
2022-08-28T11:59:55.565Z,19.48
2022-08-28T12:02:59.688Z,11.82
2022-08-28T12:05:33.184Z,15.18
2022-08-28T12:08:02.645Z,13.63
2022-08-28T12:10:30.866Z,13.90
2022-08-28T12:13:09.952Z,16.95
2022-08-28T12:15:42.152Z,15.20
2022-08-28T12:18:12.580Z,14.13
2022-08-28T12:21:00.783Z,18.15
2022-08-28T12:23:36.710Z,15.10
2022-08-28T12:26:18.991Z,18.00
2022-08-28T12:29:00.469Z,14.43
2022-08-28T12:32:08.122Z,11.93
2022-08-28T12:34:57.410Z,15.65
2022-08-28T12:37:52.733Z,11.82
2022-08-28T12:40:50.204Z,10.77
2022-08-28T12:43:26.144Z,6.53
2022-08-28T12:46:04.027Z,11.23
2022-08-28T12:48:33.346Z,16.13
2022-08-28T12:51:06.415Z,15.57
2022-08-28T12:53:45.274Z,13.98
2022-08-28T12:56:17.051Z,11.45
2022-08-28T12:58:45.408Z,7.18
2022-08-28T13:01:16.263Z,11.85
2022-08-28T13:03:49.865Z,10.75
2022-08-28T13:06:38.591Z,17.80
2022-08-28T13:09:14.652Z,8.65
2022-08-28T13:11:49.506Z,12.43
2022-08-28T13:14:37.918Z,12.23
2022-08-28T13:17:05.403Z,11.13
2022-08-28T13:19:34.274Z,10.90
2022-08-28T13:22:05.808Z,13.73
2022-08-28T13:24:40.159Z,11.30
2022-08-28T13:27:16.738Z,9.63
2022-08-28T13:30:21.135Z,9.55
2022-08-28T13:33:14.974Z,12.32
2022-08-28T13:35:42.707Z,11.05
2022-08-28T13:38:13.135Z,9.07
2022-08-28T13:40:59.364Z,17.90
2022-08-28T13:43:30.363Z,16.10
2022-08-28T13:45:57.958Z,17.38
2022-08-28T13:48:27.317Z,13.00
2022-08-28T13:51:03.168Z,11.00
2022-08-28T13:53:32.743Z,11.07
2022-08-28T13:56:00.520Z,12.00
2022-08-28T14:03:39.056Z,11.88
2022-08-28T14:06:12.796Z,14.45
2022-08-28T14:08:42.008Z,8.70
2022-08-28T14:11:12.699Z,13.65
2022-08-28T14:13:47.073Z,10.88
2022-08-28T14:16:24.971Z,9.10
2022-08-28T14:18:53.086Z,14.68
2022-08-28T14:21:22.116Z,9.80
2022-08-28T14:23:49.348Z,10.27
2022-08-28T14:26:16.552Z,21.20
2022-08-28T14:28:43.732Z,10.32
2022-08-28T14:31:14.387Z,11.32
2022-08-28T14:33:45.172Z,10.55
2022-08-28T14:36:22.500Z,7.65
2022-08-28T14:38:53.886Z,10.13
2022-08-28T14:41:23.137Z,9.98
2022-08-28T14:43:50.574Z,11.13
2022-08-28T14:46:25.100Z,14.20
2022-08-28T14:48:52.491Z,10.82
2022-08-28T14:51:19.621Z,15.73
2022-08-28T14:53:48.345Z,8.38
2022-08-28T14:56:15.742Z,11.18
2022-08-28T14:58:43.240Z,8.48
2022-08-28T15:01:10.487Z,9.57
2022-08-28T15:03:37.942Z,8.50
2022-08-28T15:06:09.206Z,9.40
2022-08-28T15:08:37.479Z,9.05
2022-08-28T15:11:07.338Z,8.25
2022-08-28T15:13:35.458Z,7.85
2022-08-28T15:16:06.466Z,7.20
2022-08-28T15:18:45.722Z,10.25
2022-08-28T15:21:18.336Z,8.70
2022-08-28T15:23:45.921Z,10.73
2022-08-28T15:26:15.484Z,10.98
2022-08-28T15:28:43.148Z,8.07
2022-08-28T15:31:10.524Z,11.52
2022-08-28T15:33:40.170Z,8.65
2022-08-28T15:36:10.835Z,6.78
2022-08-28T15:38:56.716Z,13.68
2022-08-28T15:41:25.593Z,10.68
2022-08-28T15:43:54.977Z,9.73
2022-08-28T15:46:23.389Z,8.10
2022-08-28T15:48:50.573Z,7.13
2022-08-28T15:51:25.951Z,8.68
2022-08-28T15:53:55.668Z,9.98
2022-08-28T15:56:23.507Z,10.90
2022-08-28T16:01:20.637Z,10.00
2022-08-28T16:03:47.918Z,8.60
2022-08-28T16:06:23.323Z,9.70
2022-08-28T16:08:50.657Z,10.02
2022-08-28T16:11:19.751Z,5.60
2022-08-28T16:13:47.406Z,10.80
2022-08-28T16:16:14.903Z,12.63
2022-08-28T16:18:42.780Z,8.02
2022-08-28T16:23:38.828Z,7.65
2022-08-28T16:26:07.434Z,7.80
2022-08-28T16:28:35.967Z,7.28
2022-08-28T16:31:07.521Z,8.23
2022-08-28T16:33:46.254Z,13.18
2022-08-28T16:36:14.169Z,10.18
2022-08-28T16:38:43.526Z,7.93
2022-08-28T16:41:23.944Z,9.38
2022-08-28T16:43:55.485Z,7.07
2022-08-28T16:48:53.885Z,10.48
2022-08-28T16:51:21.553Z,10.75
2022-08-28T16:53:48.853Z,10.52
2022-08-28T16:56:17.789Z,8.18
2022-08-28T16:58:46.055Z,8.20
2022-08-28T17:01:13.878Z,8.98
2022-08-28T17:03:42.479Z,10.02
2022-08-28T17:06:13.979Z,10.98
2022-08-28T17:08:41.559Z,7.55
2022-08-28T17:11:08.841Z,10.93
2022-08-28T17:13:36.327Z,8.88
2022-08-28T17:16:04.330Z,9.10
2022-08-28T17:18:32.845Z,11.05
2022-08-28T17:21:19.076Z,8.40
2022-08-28T17:23:46.733Z,8.55
2022-08-28T17:28:43.499Z,10.30
2022-08-28T17:31:12.427Z,9.98
2022-08-28T17:33:41.348Z,9.38
2022-08-28T17:36:17.067Z,9.50
2022-08-28T17:38:58.530Z,10.40
2022-08-28T17:41:25.764Z,9.00
2022-08-28T17:43:53.238Z,15.68
2022-08-28T17:46:20.429Z,12.75
2022-08-28T17:48:54.273Z,12.68
2022-08-28T17:51:33.858Z,7.30
2022-08-28T17:54:12.762Z,8.45
2022-08-28T17:56:40.669Z,10.02
2022-08-28T18:01:36.254Z,10.48
2022-08-28T18:04:05.262Z,8.38
2022-08-28T18:06:32.862Z,11.68
2022-08-28T18:09:00.478Z,11.60
2022-08-28T18:11:28.326Z,10.30
2022-08-28T18:16:25.432Z,9.75
2022-08-28T18:18:54.961Z,8.68
2022-08-28T18:21:22.150Z,10.82
2022-08-28T18:23:49.252Z,7.82
2022-08-28T18:26:17.622Z,11.77
2022-08-28T18:28:44.881Z,8.35
2022-08-28T18:31:12.242Z,9.63
2022-08-28T18:33:39.579Z,8.30
2022-08-28T18:36:09.002Z,10.88
2022-08-28T18:38:37.006Z,11.27
2022-08-28T18:41:05.879Z,13.45
2022-08-28T18:43:33.465Z,11.55
2022-08-28T18:46:02.062Z,14.40
2022-08-28T18:48:31.214Z,9.57
2022-08-28T18:50:58.720Z,9.43
2022-08-28T18:53:26.573Z,10.80
2022-08-28T18:55:55.132Z,8.32
2022-08-28T18:58:23.487Z,12.82
2022-08-28T19:00:51.445Z,8.68
2022-08-28T19:03:18.978Z,9.48
2022-08-28T19:05:46.379Z,8.65
2022-08-28T19:08:14.395Z,11.35
2022-08-28T19:10:42.121Z,13.60
2022-08-28T19:13:11.061Z,7.93
2022-08-28T19:15:38.542Z,10.68
2022-08-28T19:18:05.944Z,7.05
2022-08-28T19:20:34.305Z,11.32
2022-08-28T19:23:01.535Z,10.52
2022-08-28T19:25:30.709Z,7.70
2022-08-28T19:27:59.652Z,12.50
2022-08-28T19:30:31.210Z,10.27
2022-08-28T19:32:59.390Z,9.10
2022-08-28T19:35:26.807Z,7.97
2022-08-28T19:37:54.160Z,8.80
2022-08-28T19:40:22.267Z,11.15
2022-08-28T19:42:52.696Z,10.23
2022-08-28T19:45:20.407Z,11.45
2022-08-28T19:47:47.616Z,8.23
2022-08-28T19:50:15.800Z,12.40
2022-08-28T19:52:44.021Z,10.07
2022-08-28T19:55:17.612Z,11.07
2022-08-28T19:57:46.910Z,10.82
2022-08-28T20:00:19.035Z,8.52
2022-08-28T20:02:48.152Z,11.77
2022-08-28T20:05:15.698Z,7.05
2022-08-28T20:07:43.685Z,8.10
2022-08-28T20:10:12.568Z,9.68
2022-08-28T20:12:40.253Z,8.93
2022-08-28T20:15:17.267Z,9.48
2022-08-28T20:17:49.837Z,6.13
2022-08-28T20:20:20.301Z,12.85
2022-08-28T20:22:47.866Z,12.35
2022-08-28T20:25:15.710Z,10.73
2022-08-28T20:27:42.826Z,10.57
2022-08-28T20:30:11.543Z,9.10
2022-08-28T20:32:40.055Z,13.18
2022-08-28T20:35:12.095Z,11.68
2022-08-28T20:37:44.559Z,9.23
2022-08-28T20:40:19.268Z,12.40
2022-08-28T20:42:46.739Z,17.02
2022-08-28T20:45:15.946Z,10.73
2022-08-28T20:47:44.042Z,9.55
2022-08-28T20:50:11.788Z,10.73
2022-08-28T20:52:39.214Z,9.73
2022-08-28T20:55:08.016Z,11.52
2022-08-28T20:57:36.038Z,6.88
2022-08-28T21:00:08.268Z,10.68
2022-08-28T21:02:36.554Z,10.15
2022-08-28T21:05:05.035Z,7.70
2022-08-28T21:07:34.023Z,8.23
2022-08-28T21:10:05.891Z,11.32
2022-08-28T21:12:39.422Z,9.57
2022-08-28T21:15:09.134Z,12.52
2022-08-28T21:17:36.540Z,9.65
2022-08-28T21:20:12.836Z,11.25
2022-08-28T21:22:40.805Z,10.05
2022-08-28T21:25:10.497Z,8.65
2022-08-28T21:27:38.792Z,9.60
2022-08-28T21:30:08.334Z,8.35
2022-08-28T21:32:36.213Z,12.70
2022-08-28T21:37:34.506Z,7.95
2022-08-28T21:40:03.143Z,10.45
2022-08-28T21:42:30.371Z,8.65
2022-08-28T21:44:57.910Z,11.95
2022-08-28T21:47:25.718Z,9.15
2022-08-28T21:52:26.219Z,10.15
2022-08-28T21:55:02.268Z,9.65
2022-08-28T21:57:30.011Z,8.68
2022-08-28T21:59:58.523Z,12.93
2022-08-28T22:02:26.269Z,10.32
2022-08-28T22:04:54.114Z,11.07
2022-08-28T22:07:21.702Z,9.25
2022-08-28T22:09:49.384Z,10.00
2022-08-28T22:12:16.767Z,10.05
2022-08-28T22:14:44.033Z,7.30
2022-08-28T22:17:11.917Z,11.80
2022-08-28T22:19:39.770Z,10.27
2022-08-28T22:22:27.224Z,12.77
2022-08-28T22:24:54.504Z,12.73
2022-08-28T22:27:21.801Z,8.55
2022-08-28T22:29:49.023Z,11.98
2022-08-28T22:32:16.221Z,15.73
2022-08-28T22:34:45.337Z,13.05
2022-08-28T22:37:13.076Z,10.00
2022-08-28T22:39:41.294Z,8.23
2022-08-28T22:42:09.833Z,12.00
2022-08-28T22:44:38.416Z,11.38
2022-08-28T22:47:06.244Z,7.70
2022-08-28T22:49:33.946Z,11.70
2022-08-28T22:52:03.434Z,10.43
2022-08-28T22:54:32.536Z,8.52
2022-08-28T22:56:59.723Z,7.43
2022-08-28T22:59:28.024Z,12.45
2022-08-28T23:01:55.685Z,12.45
2022-08-28T23:04:22.932Z,10.10
2022-08-28T23:06:50.160Z,15.68
2022-08-28T23:09:17.386Z,13.00
2022-08-28T23:11:44.507Z,13.27
2022-08-28T23:14:12.386Z,12.00
2022-08-28T23:16:39.616Z,10.15
2022-08-28T23:19:09.154Z,14.82
2022-08-28T23:21:39.259Z,12.30
2022-08-28T23:24:08.262Z,15.38
2022-08-28T23:26:35.395Z,9.82
2022-08-28T23:29:02.955Z,12.27
2022-08-28T23:31:30.152Z,10.98
2022-08-28T23:33:57.392Z,8.77
2022-08-28T23:36:24.615Z,11.70
2022-08-28T23:38:51.996Z,8.88
2022-08-28T23:41:19.228Z,8.95
2022-08-28T23:43:47.497Z,13.05
2022-08-28T23:46:20.637Z,15.73
2022-08-28T23:48:49.627Z,11.63
2022-08-28T23:51:17.349Z,8.77
2022-08-28T23:53:46.120Z,8.80
2022-08-28T23:56:14.774Z,7.78
2022-08-28T23:58:43.225Z,12.98
